createdAt,value
2023-06-03T00:00:26.170Z,58.88
2023-06-03T00:05:48.981Z,58.92
2023-06-03T00:10:51.914Z,58.95
2023-06-03T00:15:54.819Z,59.33
2023-06-03T00:20:57.737Z,59.26
2023-06-03T00:26:00.620Z,59.37
2023-06-03T00:31:03.825Z,59.14
2023-06-03T00:36:07.464Z,58.97
2023-06-03T00:41:10.336Z,58.81
2023-06-03T00:46:14.305Z,59.00
2023-06-03T00:51:17.672Z,59.15
2023-06-03T00:56:20.734Z,59.26
2023-06-03T01:01:25.705Z,59.01
2023-06-03T01:06:35.961Z,58.32
2023-06-03T01:11:47.758Z,58.85
2023-06-03T01:16:52.130Z,58.56
2023-06-03T01:22:01.632Z,58.49
2023-06-03T01:27:04.829Z,58.20
2023-06-03T01:32:12.878Z,58.10
2023-06-03T01:37:15.741Z,58.33
2023-06-03T01:42:18.618Z,57.95
2023-06-03T01:47:21.538Z,58.37
2023-06-03T01:52:24.469Z,58.47
2023-06-03T01:57:28.305Z,58.76
2023-06-03T02:02:31.444Z,59.01
2023-06-03T02:07:34.416Z,58.62
2023-06-03T02:12:37.328Z,58.72
2023-06-03T02:17:41.845Z,58.03
2023-06-03T02:22:44.865Z,57.67
2023-06-03T02:27:47.675Z,57.42
2023-06-03T02:32:50.547Z,57.38
2023-06-03T02:37:53.505Z,57.39
2023-06-03T02:42:56.361Z,57.17
2023-06-03T02:47:59.211Z,56.53
2023-06-03T02:53:02.681Z,56.30
2023-06-03T02:58:05.829Z,56.90
2023-06-03T03:03:08.722Z,57.38
2023-06-03T03:08:11.693Z,56.96
2023-06-03T03:13:14.547Z,57.14
2023-06-03T03:18:17.577Z,57.03
2023-06-03T03:23:20.618Z,56.88
2023-06-03T03:28:23.545Z,54.12
2023-06-03T03:33:26.534Z,50.80
2023-06-03T03:38:29.408Z,48.76
2023-06-03T03:43:32.416Z,46.49
2023-06-03T03:48:35.275Z,46.75
2023-06-03T03:53:38.197Z,46.35
2023-06-03T03:58:42.502Z,46.31
2023-06-03T04:03:47.311Z,46.06
2023-06-03T04:08:52.704Z,45.50
2023-06-03T04:13:57.041Z,45.53
2023-06-03T04:19:00.047Z,45.06
2023-06-03T04:24:06.239Z,45.08
2023-06-03T04:29:10.799Z,45.39
2023-06-03T04:34:13.711Z,46.21
2023-06-03T04:39:18.867Z,47.21
2023-06-03T04:44:22.369Z,47.54
2023-06-03T04:49:25.235Z,48.66
2023-06-03T04:54:28.078Z,49.18
2023-06-03T04:59:31.025Z,49.74
2023-06-03T05:04:35.434Z,49.93
2023-06-03T05:09:38.542Z,49.93
2023-06-03T05:14:41.471Z,49.49
2023-06-03T05:19:44.304Z,48.84
2023-06-03T05:24:47.143Z,48.24
2023-06-03T05:29:49.940Z,48.25
2023-06-03T05:34:55.179Z,47.35
2023-06-03T05:39:58.025Z,47.58
2023-06-03T05:45:00.908Z,47.75
2023-06-03T05:50:04.279Z,47.06
2023-06-03T05:55:07.847Z,46.95
2023-06-03T06:00:11.329Z,45.82
2023-06-03T06:05:14.459Z,45.18
2023-06-03T06:10:17.282Z,45.08
2023-06-03T06:15:20.157Z,44.43
2023-06-03T06:20:23.093Z,44.66
2023-06-03T06:25:26.026Z,43.70
2023-06-03T06:30:28.886Z,44.21
2023-06-03T06:35:31.767Z,44.25
2023-06-03T06:40:35.773Z,44.37
2023-06-03T06:45:38.901Z,44.57
2023-06-03T06:50:57.644Z,45.37
2023-06-03T06:56:08.984Z,44.15
2023-06-03T07:01:11.999Z,43.71
2023-06-03T07:06:15.235Z,42.68
2023-06-03T07:11:18.154Z,43.01
2023-06-03T07:16:22.393Z,43.15
2023-06-03T07:21:26.653Z,42.96
2023-06-03T07:26:33.059Z,42.72
2023-06-03T07:36:44.845Z,42.44
2023-06-03T07:41:52.026Z,42.67
2023-06-03T07:46:59.440Z,42.70
2023-06-03T07:52:02.479Z,43.12
2023-06-03T07:57:06.697Z,41.84
2023-06-03T08:02:13.097Z,41.40
2023-06-03T08:07:17.472Z,41.14
2023-06-03T08:12:31.341Z,40.51
2023-06-03T08:17:42.074Z,40.61
2023-06-03T08:22:45.873Z,40.99
2023-06-03T08:27:49.595Z,40.79
2023-06-03T08:32:52.624Z,40.21
2023-06-03T08:37:56.187Z,40.80
2023-06-03T08:43:03.488Z,40.98
2023-06-03T08:48:33.469Z,40.38
2023-06-03T08:53:53.295Z,40.46
2023-06-03T08:59:02.791Z,39.63
2023-06-03T09:04:06.348Z,39.88
2023-06-03T09:09:10.571Z,41.70
2023-06-03T09:14:14.482Z,42.40
2023-06-03T09:19:18.721Z,41.05
2023-06-03T09:24:21.738Z,40.10
2023-06-03T09:29:25.865Z,38.69
2023-06-03T09:34:30.116Z,39.53
2023-06-03T09:39:34.861Z,40.33
2023-06-03T09:44:56.979Z,40.04
2023-06-03T09:50:13.362Z,38.01
2023-06-03T09:55:16.819Z,37.59
2023-06-03T10:00:19.948Z,36.96
2023-06-03T10:05:29.998Z,37.65
2023-06-03T10:10:37.063Z,38.50
2023-06-03T10:15:41.329Z,38.48
2023-06-03T10:20:44.854Z,39.04
2023-06-03T10:25:53.978Z,37.91
2023-06-03T10:30:59.226Z,36.74
2023-06-03T10:36:04.906Z,38.30
2023-06-03T10:41:10.758Z,38.18
2023-06-03T10:46:14.350Z,39.23
2023-06-03T10:51:51.790Z,38.57
2023-06-03T10:57:10.145Z,37.45
2023-06-03T11:02:14.416Z,36.63
2023-06-03T11:07:33.146Z,37.03
2023-06-03T11:12:50.679Z,36.99
2023-06-03T11:18:31.203Z,36.24
2023-06-03T11:23:47.032Z,36.01
2023-06-03T11:28:50.201Z,36.27
2023-06-03T11:34:27.545Z,36.31
2023-06-03T11:40:07.372Z,36.41
2023-06-03T11:45:23.018Z,37.34
2023-06-03T11:50:33.586Z,36.94
2023-06-03T11:55:36.848Z,36.94
2023-06-03T12:00:39.964Z,36.58
2023-06-03T12:06:03.212Z,36.29
2023-06-03T12:11:06.491Z,35.88
2023-06-03T12:16:09.732Z,35.96
2023-06-03T12:21:23.417Z,36.15
2023-06-03T12:26:27.091Z,37.15
2023-06-03T12:31:30.280Z,36.68
2023-06-03T12:36:51.205Z,37.11
2023-06-03T12:41:55.783Z,36.95
2023-06-03T12:47:03.819Z,37.09
2023-06-03T12:52:37.760Z,36.65
2023-06-03T12:57:43.484Z,36.64
2023-06-03T13:02:49.065Z,36.60
2023-06-03T13:07:52.422Z,37.27
2023-06-03T13:12:55.422Z,37.18
2023-06-03T13:17:58.544Z,37.49
2023-06-03T13:23:01.581Z,38.59
2023-06-03T13:28:04.566Z,38.33
2023-06-03T13:33:07.973Z,36.53
2023-06-03T13:38:15.234Z,36.33
2023-06-03T13:43:18.255Z,37.08
2023-06-03T13:48:21.274Z,37.08
2023-06-03T13:53:24.250Z,36.50
2023-06-03T13:58:27.294Z,37.36
2023-06-03T14:03:30.270Z,37.81
2023-06-03T14:08:34.675Z,36.65
2023-06-03T14:13:37.700Z,36.84
2023-06-03T14:18:40.708Z,36.85
2023-06-03T14:23:43.690Z,36.83
2023-06-03T14:28:47.219Z,37.23
2023-06-03T14:33:50.472Z,37.22
2023-06-03T14:38:53.540Z,36.76
2023-06-03T14:43:59.804Z,37.03
2023-06-03T14:49:02.854Z,37.59
2023-06-03T14:54:06.773Z,37.12
2023-06-03T14:59:09.782Z,36.11
2023-06-03T15:04:14.903Z,35.77
2023-06-03T15:09:18.152Z,36.22
2023-06-03T15:14:21.058Z,36.12
2023-06-03T15:19:24.007Z,36.87
2023-06-03T15:24:27.161Z,35.87
2023-06-03T15:29:30.264Z,35.98
2023-06-03T15:34:33.402Z,35.69
2023-06-03T15:39:36.456Z,35.68
2023-06-03T15:44:39.332Z,35.74
2023-06-03T15:49:42.337Z,36.43
2023-06-03T15:54:45.844Z,36.39
2023-06-03T15:59:48.842Z,36.93
2023-06-03T16:04:51.894Z,36.62
2023-06-03T16:09:54.881Z,36.69
2023-06-03T16:14:58.106Z,36.19
2023-06-03T16:20:01.502Z,35.76
2023-06-03T16:25:05.823Z,35.86
2023-06-03T16:30:10.202Z,35.79
2023-06-03T16:35:13.246Z,36.12
2023-06-03T16:40:16.295Z,36.28
2023-06-03T16:45:19.322Z,36.51
2023-06-03T16:50:22.304Z,36.47
2023-06-03T16:55:25.382Z,36.36
2023-06-03T17:00:28.424Z,36.72
2023-06-03T17:05:32.519Z,36.87
2023-06-03T17:10:36.731Z,37.37
2023-06-03T17:15:39.723Z,37.53
2023-06-03T17:20:42.804Z,37.57
2023-06-03T17:25:46.584Z,38.29
2023-06-03T17:30:49.888Z,38.62
2023-06-03T17:35:52.798Z,39.02
2023-06-03T17:40:57.659Z,39.48
2023-06-03T17:46:01.096Z,40.14
2023-06-03T17:51:04.690Z,40.52
2023-06-03T17:56:08.318Z,40.60
2023-06-03T18:01:11.839Z,41.56
2023-06-03T18:06:14.844Z,41.96
2023-06-03T18:11:17.886Z,42.63
2023-06-03T18:16:21.025Z,43.01
2023-06-03T18:21:24.074Z,42.64
2023-06-03T18:26:29.072Z,42.58
2023-06-03T18:31:32.451Z,42.92
2023-06-03T18:36:35.458Z,42.85
2023-06-03T18:41:38.513Z,43.35
2023-06-03T18:46:41.583Z,43.84
2023-06-03T18:51:44.585Z,44.19
2023-06-03T18:56:47.597Z,44.42
2023-06-03T19:01:51.373Z,45.46
2023-06-03T19:06:54.581Z,45.29
2023-06-03T19:11:57.597Z,45.83
2023-06-03T19:17:01.018Z,46.25
2023-06-03T19:22:04.089Z,47.82
2023-06-03T19:27:07.600Z,48.42
2023-06-03T19:32:10.572Z,49.60
2023-06-03T19:37:13.596Z,50.34
2023-06-03T19:42:16.642Z,50.57
2023-06-03T19:47:19.598Z,50.69
2023-06-03T19:52:22.613Z,50.19
2023-06-03T19:57:25.697Z,49.97
2023-06-03T20:02:28.741Z,50.68
2023-06-03T20:07:35.515Z,51.28
2023-06-03T20:12:38.501Z,51.84
2023-06-03T20:17:41.593Z,51.82
2023-06-03T20:22:44.920Z,51.92
2023-06-03T20:27:50.497Z,52.41
2023-06-03T20:32:58.261Z,52.61
2023-06-03T20:38:04.571Z,52.59
2023-06-03T20:43:07.609Z,52.97
2023-06-03T20:48:11.126Z,53.14
2023-06-03T20:53:14.133Z,53.52
2023-06-03T20:58:17.461Z,53.80
2023-06-03T21:03:20.812Z,54.14
2023-06-03T21:08:23.804Z,54.43
2023-06-03T21:13:27.545Z,54.66
2023-06-03T21:18:30.615Z,54.30
2023-06-03T21:23:33.623Z,54.41
2023-06-03T21:28:36.825Z,54.54
2023-06-03T21:33:39.891Z,54.73
2023-06-03T21:38:42.892Z,54.92
2023-06-03T21:43:45.895Z,54.92
2023-06-03T21:48:49.232Z,55.48
2023-06-03T21:53:53.667Z,55.64
2023-06-03T21:58:56.655Z,55.47
2023-06-03T22:03:59.809Z,55.66
2023-06-03T22:09:03.049Z,55.70
2023-06-03T22:14:06.359Z,55.80
2023-06-03T22:19:09.473Z,56.28
2023-06-03T22:24:12.668Z,56.31
2023-06-03T22:29:15.721Z,56.13
2023-06-03T22:34:18.696Z,56.20
2023-06-03T22:39:21.752Z,56.44
2023-06-03T22:44:24.946Z,56.80
2023-06-03T22:49:27.930Z,56.83
2023-06-03T22:54:31.044Z,56.94
2023-06-03T22:59:34.053Z,57.35
2023-06-03T23:04:37.058Z,57.63
2023-06-03T23:09:40.193Z,57.65
2023-06-03T23:14:43.202Z,57.82
2023-06-03T23:19:46.230Z,57.96
2023-06-03T23:24:49.259Z,58.39
2023-06-03T23:29:52.252Z,58.28
2023-06-03T23:34:55.235Z,58.28
2023-06-03T23:39:58.548Z,58.19
2023-06-03T23:45:02.767Z,58.28
2023-06-03T23:50:06.943Z,58.41
2023-06-03T23:55:10.191Z,58.26
